Newton, Mississippi
Current Conditions -  °F | °C
As of 10:58 PM on Wednesday 17 Dec 2014 (Local Time) from KMEI Reporting Station
Clear Clear  
Wind Chill: 42°   Ceiling: Unl
Heat Index: 42°   Visibility: 10mi
Dew Point: 36°   Wind: 0mph
Humidity: 79%   Direction: NA
Pressure: 30.21"   Gusts: NA
Location:  32.32°N, 89.16°W
Report Text: KMEI 180458Z AUTO 00000KT 10SM CLR 06/02 A3021 RMK AO2 SLP228 T00560022
Loading
Personal Weather Stations






























Interactive Weather Map New forecast layout! Learn more

10-Day Weather Forecast

Advertisements
Track Severe Weather on mobile